Adrar, Adrar Airport (DAUA)

NameAdrar Airport
CityAdrar
CountryAlgeria
ICAODAUA
IATAAZR
Altitude280 m
CoordinatesGoogle Map
Live Air TrafficLiveATC.net
METARDAUA 251700Z 26017KT 7000 DRSA NSC 32/02 Q1006
2020-04-25 17:00:00 Wind: West-Southwest (260°) 8.75 m/s - Visibility: 7000 m - Temperature: 32 °C - Dew point: 2 °C - Humidity: 14.7% - Pressure: 1006 hPa
Statistics

The table below shows the detailed information of all flights to/from Adrar, Adrar Airport (DAUA).

Ident Aircraft Coming fromFrom Going toTo Owner nameOwnerSpotted durationDurationDate
EC-HPR - CRJ2 - Air Nostrum ANE5756 CANADAIR Challenger 800 CRJ2 Adrar, Algeria (DAUA) DAUA
1440 km
Madrid, Spain (LEMD) LEMD
26 km
Iberia Regional Iberia Regional - - Thu, 02 Jul 2020 07:19:55 +0000 2/7/2020 7:19 am
EC-HPR - CRJ2 - Air Nostrum ANE5756 CANADAIR Challenger 800 CRJ2 Adrar, Algeria (DAUA) DAUA
1460 km
Madrid, Spain (LEMD) LEMD Iberia Regional Iberia Regional - - Wed, 01 Jul 2020 14:10:43 +0000 1/7/2020 2:10 pm
EC-HPR - CRJ2 - Air Nostrum ANE5755 CANADAIR Challenger 800 CRJ2 Madrid, Spain (LEMD) LEMD
241 km
Adrar, Algeria (DAUA) DAUA
1299 km
Iberia Regional Iberia Regional 00:05:00 00:05:00 Wed, 01 Jul 2020 08:46:56 +0000 1/7/2020 8:46 am
Wed, 01 Jul 2020 08:51:56 +0000 1/7/2020 8:51 am